createdAt,value
2023-01-11T00:01:20.102Z,51.70
2023-01-11T00:03:46.685Z,47.53
2023-01-11T00:06:13.277Z,46.70
2023-01-11T00:08:39.838Z,47.50
2023-01-11T00:11:11.216Z,43.93
2023-01-11T00:13:37.757Z,44.50
2023-01-11T00:16:07.877Z,44.20
2023-01-11T00:18:34.531Z,42.27
2023-01-11T00:21:05.899Z,42.10
2023-01-11T00:23:32.927Z,36.77
2023-01-11T00:25:59.562Z,37.37
2023-01-11T00:28:26.094Z,43.40
2023-01-11T00:30:52.730Z,41.97
2023-01-11T00:33:19.411Z,42.33
2023-01-11T00:35:46.032Z,42.33
2023-01-11T00:38:32.734Z,42.47
2023-01-11T00:41:19.264Z,38.97
2023-01-11T00:44:04.830Z,47.37
2023-01-11T00:46:50.018Z,39.60
2023-01-11T00:49:16.610Z,42.27
2023-01-11T00:51:43.169Z,42.27
2023-01-11T00:54:09.735Z,42.80
2023-01-11T00:56:36.266Z,40.00
2023-01-11T00:59:02.825Z,38.60
2023-01-11T01:01:29.452Z,37.70
2023-01-11T01:03:56.044Z,38.17
2023-01-11T01:06:22.760Z,43.47
2023-01-11T01:08:49.359Z,45.40
2023-01-11T01:11:16.267Z,36.97
2023-01-11T01:14:01.582Z,42.87
2023-01-11T01:16:28.127Z,39.77
2023-01-11T01:18:57.272Z,37.10
2023-01-11T01:21:24.147Z,40.23
2023-01-11T01:23:54.331Z,40.27
2023-01-11T01:26:20.979Z,46.90
2023-01-11T01:28:47.461Z,41.63
2023-01-11T01:31:14.129Z,47.73
2023-01-11T01:33:40.814Z,45.63
2023-01-11T01:36:07.568Z,45.27
2023-01-11T01:38:34.099Z,37.77
2023-01-11T01:41:00.803Z,40.83
2023-01-11T01:43:47.619Z,38.83
2023-01-11T01:46:14.496Z,46.00
2023-01-11T01:48:41.024Z,41.30
2023-01-11T01:51:07.608Z,46.80
2023-01-11T01:53:44.900Z,48.63
2023-01-11T01:56:15.430Z,44.07
2023-01-11T01:58:43.976Z,43.07
2023-01-11T02:01:29.270Z,44.90
2023-01-11T02:03:55.912Z,39.03
2023-01-11T02:06:22.779Z,42.07
2023-01-11T02:08:53.201Z,48.37
2023-01-11T02:11:32.001Z,43.60
2023-01-11T02:13:58.977Z,50.43
2023-01-11T02:16:25.585Z,48.30
2023-01-11T02:18:52.464Z,51.47
2023-01-11T02:21:23.361Z,42.93
2023-01-11T02:23:49.998Z,43.17
2023-01-11T02:26:22.782Z,44.70
2023-01-11T02:28:52.835Z,45.23
2023-01-11T02:31:23.362Z,46.27
2023-01-11T02:33:50.083Z,52.80
2023-01-11T02:36:27.008Z,47.77
2023-01-11T02:38:56.680Z,46.00
2023-01-11T02:41:26.478Z,49.30
2023-01-11T02:44:16.365Z,48.23
2023-01-11T02:46:47.831Z,48.93
2023-01-11T02:49:33.239Z,54.67
2023-01-11T02:52:01.967Z,47.00
2023-01-11T02:54:28.463Z,47.90
2023-01-11T02:56:56.151Z,44.33
2023-01-11T02:59:23.219Z,45.87
2023-01-11T03:01:51.822Z,45.50
2023-01-11T03:04:34.309Z,46.10
2023-01-11T03:07:13.140Z,44.53
2023-01-11T03:09:45.716Z,45.73
2023-01-11T03:12:44.047Z,44.93
2023-01-11T03:15:10.552Z,45.30
2023-01-11T03:17:40.246Z,41.53
2023-01-11T03:20:11.969Z,43.83
2023-01-11T03:22:48.556Z,46.90
2023-01-11T03:25:37.980Z,45.10
2023-01-11T03:28:16.796Z,41.10
2023-01-11T03:30:56.588Z,47.87
2023-01-11T03:33:24.783Z,43.43
2023-01-11T03:35:53.984Z,40.70
2023-01-11T03:38:26.668Z,40.77
2023-01-11T03:40:57.557Z,42.03
2023-01-11T03:43:24.138Z,43.63
2023-01-11T03:45:54.083Z,43.20
2023-01-11T03:48:22.129Z,42.57
2023-01-11T03:50:48.691Z,44.70
2023-01-11T03:53:15.325Z,41.30
2023-01-11T03:55:42.255Z,45.83
2023-01-11T03:58:09.216Z,46.40
2023-01-11T04:00:36.449Z,46.20
2023-01-11T04:03:04.131Z,45.17
2023-01-11T04:05:30.727Z,44.67
2023-01-11T04:07:57.474Z,46.53
2023-01-11T04:10:24.419Z,46.10
2023-01-11T04:12:51.058Z,43.17
2023-01-11T04:15:17.664Z,42.97
2023-01-11T04:17:44.229Z,45.23
2023-01-11T04:20:10.947Z,50.23
2023-01-11T04:22:37.509Z,43.37
2023-01-11T04:25:04.333Z,46.77
2023-01-11T04:27:30.864Z,45.87
2023-01-11T04:29:57.581Z,44.27
2023-01-11T04:32:24.287Z,43.03
2023-01-11T04:34:50.839Z,49.63
2023-01-11T04:37:17.529Z,53.80
2023-01-11T04:39:44.021Z,58.77
2023-01-11T04:42:21.281Z,54.77
2023-01-11T04:44:49.079Z,50.87
2023-01-11T04:47:16.033Z,51.33
2023-01-11T04:49:42.598Z,44.47
2023-01-11T04:52:12.617Z,41.53
2023-01-11T04:54:39.201Z,43.33
2023-01-11T04:57:05.888Z,38.17
2023-01-11T04:59:32.494Z,39.87
2023-01-11T05:01:59.034Z,45.20
2023-01-11T05:04:25.665Z,43.43
2023-01-11T05:06:52.449Z,43.27
2023-01-11T05:09:19.210Z,43.47
2023-01-11T05:11:45.747Z,42.30
2023-01-11T05:14:12.358Z,42.20
2023-01-11T05:16:39.016Z,44.53
2023-01-11T05:19:06.573Z,45.87
2023-01-11T05:21:37.039Z,52.23
2023-01-11T05:24:04.136Z,63.33
2023-01-11T05:26:33.857Z,57.67
2023-01-11T05:29:01.773Z,67.43
2023-01-11T05:31:28.401Z,62.37
2023-01-11T05:33:58.404Z,64.47
2023-01-11T05:36:25.502Z,62.13
2023-01-11T05:38:52.746Z,68.33
2023-01-11T05:41:20.328Z,67.37
2023-01-11T05:44:06.048Z,74.70
2023-01-11T05:46:32.920Z,73.50
2023-01-11T05:48:59.518Z,64.63
2023-01-11T05:51:26.359Z,65.47
2023-01-11T05:53:55.802Z,61.67
2023-01-11T05:56:22.336Z,60.97
2023-01-11T05:58:49.379Z,76.63
2023-01-11T06:01:17.608Z,65.50
2023-01-11T06:03:44.622Z,64.37
2023-01-11T06:06:11.230Z,67.20
2023-01-11T06:08:37.777Z,67.97
2023-01-11T06:11:04.341Z,69.43
2023-01-11T06:13:30.891Z,72.63
2023-01-11T06:16:00.621Z,68.73
2023-01-11T06:18:27.627Z,65.93
2023-01-11T06:20:54.413Z,69.10
2023-01-11T06:23:21.139Z,61.93
2023-01-11T06:25:47.695Z,71.23
2023-01-11T06:28:14.238Z,67.03
2023-01-11T06:30:40.928Z,71.87
2023-01-11T06:33:07.585Z,74.87
2023-01-11T06:35:34.801Z,71.40
2023-01-11T06:38:01.333Z,73.83
2023-01-11T06:40:28.564Z,81.83
2023-01-11T06:42:55.104Z,79.47
2023-01-11T06:45:21.660Z,85.43
2023-01-11T06:47:48.373Z,84.97
2023-01-11T06:50:15.345Z,80.80
2023-01-11T06:52:41.948Z,77.20
2023-01-11T06:55:08.720Z,69.37
2023-01-11T06:57:35.353Z,91.43
2023-01-11T07:00:02.270Z,64.10
2023-01-11T07:02:28.891Z,66.00
2023-01-11T07:04:55.460Z,86.23
2023-01-11T07:07:22.251Z,66.30
2023-01-11T07:09:48.825Z,66.07
2023-01-11T07:12:15.425Z,64.77
2023-01-11T07:14:42.138Z,69.23
2023-01-11T07:17:08.715Z,74.10
2023-01-11T07:19:35.333Z,64.00
2023-01-11T07:22:01.824Z,64.13
2023-01-11T07:24:28.449Z,75.50
2023-01-11T07:26:56.314Z,55.63
2023-01-11T07:29:22.933Z,55.60
2023-01-11T07:31:49.569Z,60.53
2023-01-11T07:34:17.094Z,59.40
2023-01-11T07:36:43.627Z,64.37
2023-01-11T07:39:10.272Z,101.03
2023-01-11T07:41:55.809Z,80.30
2023-01-11T07:44:22.412Z,103.97
2023-01-11T07:46:49.238Z,72.37
2023-01-11T07:49:15.848Z,76.07
2023-01-11T07:51:42.992Z,107.10
2023-01-11T07:54:09.676Z,84.53
2023-01-11T07:56:36.469Z,82.53
2023-01-11T07:59:03.143Z,87.50
2023-01-11T08:01:29.894Z,86.03
2023-01-11T08:03:56.490Z,83.73
2023-01-11T08:06:23.106Z,73.40
2023-01-11T08:08:49.760Z,79.90
2023-01-11T08:11:35.055Z,71.17
2023-01-11T08:14:20.511Z,83.60
2023-01-11T08:16:47.182Z,69.00
2023-01-11T08:19:13.894Z,64.93
2023-01-11T08:21:43.378Z,79.60
2023-01-11T08:24:10.034Z,67.20
2023-01-11T08:26:36.630Z,71.63
2023-01-11T08:29:04.173Z,74.93
2023-01-11T08:31:30.801Z,67.20
2023-01-11T08:33:57.511Z,59.43
2023-01-11T08:36:27.406Z,57.23
2023-01-11T08:38:57.291Z,65.83
2023-01-11T08:41:24.241Z,60.63
2023-01-11T08:43:51.013Z,56.17
2023-01-11T08:46:18.019Z,56.93
2023-01-11T08:48:45.011Z,52.30
2023-01-11T08:51:11.695Z,54.63
2023-01-11T08:53:38.330Z,58.93
2023-01-11T08:56:05.064Z,50.97
2023-01-11T08:58:31.699Z,54.27
2023-01-11T09:01:00.243Z,50.07
2023-01-11T09:03:26.918Z,60.13
2023-01-11T09:05:54.138Z,60.40
2023-01-11T09:08:22.420Z,52.97
2023-01-11T09:10:49.382Z,58.03
2023-01-11T09:13:16.045Z,54.97
2023-01-11T09:15:42.769Z,61.20
2023-01-11T09:18:09.313Z,51.20
2023-01-11T09:20:35.945Z,53.93
2023-01-11T09:23:02.686Z,56.57
2023-01-11T09:25:29.523Z,60.53
2023-01-11T09:27:56.235Z,55.83
2023-01-11T09:30:23.149Z,54.00
2023-01-11T09:32:50.005Z,51.40
2023-01-11T09:35:17.013Z,59.60
2023-01-11T09:37:54.614Z,54.97
2023-01-11T09:40:22.173Z,54.30
2023-01-11T09:42:49.394Z,52.93
2023-01-11T09:45:22.906Z,59.73
2023-01-11T09:48:05.112Z,54.80
2023-01-11T09:50:40.127Z,54.30
2023-01-11T09:53:09.757Z,62.00
2023-01-11T09:55:36.333Z,56.50
2023-01-11T09:58:05.957Z,62.40
2023-01-11T10:00:49.387Z,57.40
2023-01-11T10:03:26.041Z,63.00
2023-01-11T10:06:11.492Z,53.43
2023-01-11T10:18:22.129Z,47.47
2023-01-11T10:18:33.921Z,48.93
2023-01-11T10:20:01.636Z,45.57
2023-01-11T10:22:33.762Z,46.87
2023-01-11T10:25:14.861Z,47.50
2023-01-11T10:27:44.731Z,40.20
2023-01-11T10:30:48.726Z,42.63
2023-01-11T10:33:42.616Z,40.57
2023-01-11T10:36:30.878Z,45.27
2023-01-11T10:39:13.518Z,45.03
2023-01-11T10:41:49.105Z,51.10
2023-01-11T10:44:19.422Z,47.33
2023-01-11T10:46:50.369Z,51.50
2023-01-11T10:49:33.785Z,47.50
2023-01-11T10:52:22.477Z,46.90
2023-01-11T10:54:54.831Z,42.13
2023-01-11T10:57:33.630Z,40.53
2023-01-11T11:00:08.270Z,40.67
2023-01-11T11:02:49.400Z,41.23
2023-01-11T11:05:18.956Z,43.57
2023-01-11T11:08:04.895Z,41.53
2023-01-11T11:10:37.443Z,41.53
2023-01-11T11:13:13.224Z,47.90
2023-01-11T11:15:53.074Z,40.17
2023-01-11T11:18:19.658Z,45.97
2023-01-11T11:20:46.493Z,41.90
2023-01-11T11:23:14.331Z,46.60
2023-01-11T11:25:43.330Z,46.87
2023-01-11T11:28:29.675Z,43.53
2023-01-11T11:30:57.381Z,41.17
2023-01-11T11:33:25.064Z,39.80
2023-01-11T11:35:58.641Z,40.90
2023-01-11T11:38:26.009Z,41.83
2023-01-11T11:41:05.142Z,41.07
2023-01-11T11:43:32.112Z,38.63
2023-01-11T11:46:03.263Z,38.40
2023-01-11T11:48:33.647Z,35.17
2023-01-11T11:51:01.467Z,36.40
2023-01-11T11:53:35.580Z,31.07
2023-01-11T11:56:20.951Z,30.83
2023-01-11T11:58:47.903Z,35.10
2023-01-11T12:01:21.696Z,35.27
2023-01-11T12:03:48.372Z,33.33
2023-01-11T12:06:15.334Z,34.93
2023-01-11T12:08:42.023Z,33.77
2023-01-11T12:11:08.628Z,33.20
2023-01-11T12:13:36.303Z,37.33
2023-01-11T12:16:04.529Z,37.73
2023-01-11T12:18:33.533Z,41.20
2023-01-11T12:21:10.575Z,42.33
2023-01-11T12:23:37.245Z,43.00
2023-01-11T12:26:19.477Z,41.47
2023-01-11T12:28:55.454Z,42.00
2023-01-11T12:31:40.757Z,42.73
2023-01-11T12:34:13.696Z,43.47
2023-01-11T12:36:51.640Z,41.20
2023-01-11T12:39:37.214Z,32.00
2023-01-11T12:42:22.667Z,21.77
2023-01-11T12:44:49.267Z,16.93
2023-01-11T12:47:28.409Z,16.23
2023-01-11T12:49:58.263Z,16.47
2023-01-11T12:52:34.139Z,18.30
2023-01-11T12:55:32.994Z,14.77
2023-01-11T12:58:15.933Z,13.80
2023-01-11T13:01:08.890Z,13.63
2023-01-11T13:03:54.224Z,15.80
2023-01-11T13:06:24.410Z,17.10
2023-01-11T13:09:03.354Z,14.47
2023-01-11T13:11:43.736Z,17.03
2023-01-11T13:14:26.523Z,15.77
2023-01-11T13:17:05.721Z,17.13
2023-01-11T13:19:38.013Z,15.10
2023-01-11T13:22:05.507Z,10.90
2023-01-11T13:24:32.467Z,14.47
2023-01-11T13:27:00.286Z,12.13
2023-01-11T13:29:31.366Z,13.10
2023-01-11T13:31:59.040Z,13.77
2023-01-11T13:34:26.940Z,13.03
2023-01-11T13:37:03.614Z,15.30
2023-01-11T13:39:32.791Z,11.80
2023-01-11T13:42:00.204Z,11.80
2023-01-11T13:44:36.997Z,8.90
2023-01-11T13:47:12.107Z,12.93
2023-01-11T13:49:41.407Z,13.80
2023-01-11T13:52:15.094Z,13.33
2023-01-11T13:54:53.225Z,12.27
2023-01-11T13:57:30.197Z,14.30
2023-01-11T13:59:58.178Z,11.93
2023-01-11T14:02:31.123Z,15.93
2023-01-11T14:05:03.795Z,14.37
2023-01-11T14:07:30.397Z,17.30
2023-01-11T14:10:03.377Z,16.33
2023-01-11T14:12:48.898Z,19.87
2023-01-11T14:15:20.108Z,16.63
2023-01-11T14:17:55.770Z,14.23
2023-01-11T14:20:28.501Z,17.13
2023-01-11T14:23:04.453Z,18.07
2023-01-11T14:25:31.590Z,21.67
2023-01-11T14:28:13.531Z,20.60
2023-01-11T14:30:50.515Z,19.87
2023-01-11T14:33:36.055Z,23.43
2023-01-11T14:36:11.857Z,21.97
2023-01-11T14:38:44.386Z,26.93
2023-01-11T14:41:26.721Z,28.13
2023-01-11T14:44:12.104Z,34.53
2023-01-11T14:46:46.373Z,31.13
2023-01-11T14:49:22.708Z,32.80
2023-01-11T14:51:55.462Z,31.30
2023-01-11T14:54:29.248Z,34.47
2023-01-11T14:56:56.284Z,41.63
2023-01-11T14:59:26.050Z,41.10
2023-01-11T15:02:06.687Z,39.90
2023-01-11T15:04:33.360Z,40.43
2023-01-11T15:07:00.113Z,45.00
2023-01-11T15:09:42.166Z,42.80
2023-01-11T15:12:12.581Z,48.00
2023-01-11T15:14:39.085Z,55.17
2023-01-11T15:17:24.575Z,48.57
2023-01-11T15:19:51.747Z,48.37
2023-01-11T15:22:23.317Z,52.43
2023-01-11T15:24:54.982Z,47.23
2023-01-11T15:27:23.034Z,42.33
2023-01-11T15:29:55.992Z,47.77
2023-01-11T15:32:28.974Z,51.30
2023-01-11T15:35:15.674Z,50.40
2023-01-11T15:37:51.039Z,46.93
2023-01-11T15:40:18.108Z,51.13
2023-01-11T15:43:03.419Z,55.63
2023-01-11T15:46:07.097Z,54.07
2023-01-11T15:48:44.308Z,52.20
2023-01-11T15:51:14.216Z,54.23
2023-01-11T15:53:41.354Z,52.80
2023-01-11T15:56:23.207Z,57.77
2023-01-11T15:58:52.625Z,56.67
2023-01-11T16:01:29.043Z,63.83
2023-01-11T16:04:00.757Z,61.77
2023-01-11T16:06:34.818Z,68.50
2023-01-11T16:09:20.341Z,62.97
2023-01-11T16:12:07.454Z,68.50
2023-01-11T16:14:43.737Z,69.13
2023-01-11T16:17:14.312Z,68.00
2023-01-11T16:19:43.382Z,65.23
2023-01-11T16:22:19.488Z,62.47
2023-01-11T16:24:47.946Z,68.93
2023-01-11T16:27:18.048Z,65.27
2023-01-11T16:29:45.269Z,67.90
2023-01-11T16:32:27.406Z,68.07
2023-01-11T16:34:54.114Z,68.67
2023-01-11T16:37:20.727Z,73.83
2023-01-11T16:39:49.334Z,75.50
2023-01-11T16:42:16.407Z,71.47
2023-01-11T16:44:45.703Z,80.40
2023-01-11T16:47:13.965Z,83.00
2023-01-11T16:49:41.161Z,84.23
2023-01-11T16:52:26.676Z,94.07
2023-01-11T16:54:56.427Z,91.43
2023-01-11T16:57:23.613Z,92.27
2023-01-11T17:00:00.007Z,86.33
2023-01-11T17:02:28.168Z,86.10
2023-01-11T17:04:54.816Z,87.30
2023-01-11T17:07:25.318Z,96.47
2023-01-11T17:09:52.876Z,90.90
2023-01-11T17:12:20.567Z,91.93
2023-01-11T17:14:47.101Z,91.77
2023-01-11T17:17:13.965Z,91.93
2023-01-11T17:19:44.645Z,96.57
2023-01-11T17:22:22.050Z,103.03
2023-01-11T17:24:50.924Z,103.73
2023-01-11T17:27:26.043Z,113.77
2023-01-11T17:29:53.478Z,106.07
2023-01-11T17:32:39.256Z,101.47
2023-01-11T17:35:06.783Z,98.73
2023-01-11T17:37:33.501Z,93.13
2023-01-11T17:40:07.340Z,102.47
2023-01-11T17:43:03.411Z,97.07
2023-01-11T17:45:29.984Z,98.73
2023-01-11T17:47:56.647Z,101.23
2023-01-11T17:50:24.495Z,100.83
2023-01-11T17:52:55.143Z,106.37
2023-01-11T17:55:22.932Z,108.47
2023-01-11T17:58:08.091Z,101.67
2023-01-11T18:00:34.793Z,110.30
2023-01-11T18:03:02.061Z,96.10
2023-01-11T18:05:29.053Z,94.63
2023-01-11T18:07:57.540Z,97.27
2023-01-11T18:10:24.984Z,100.90
2023-01-11T18:12:51.506Z,95.90
2023-01-11T18:15:24.088Z,101.43
2023-01-11T18:17:56.833Z,97.50
2023-01-11T18:20:29.558Z,106.40
2023-01-11T18:22:56.874Z,96.03
2023-01-11T18:25:23.431Z,96.73
2023-01-11T18:27:49.967Z,100.27
2023-01-11T18:30:31.807Z,119.87
2023-01-11T18:32:58.715Z,110.27
2023-01-11T18:35:25.251Z,115.47
2023-01-11T18:37:51.724Z,117.23
2023-01-11T18:40:18.449Z,120.10
2023-01-11T18:42:51.918Z,129.53
2023-01-11T18:45:18.476Z,117.30
2023-01-11T18:47:45.017Z,118.30
2023-01-11T18:50:12.456Z,115.90
2023-01-11T18:52:39.063Z,111.37
2023-01-11T18:55:05.727Z,108.70
2023-01-11T18:57:32.375Z,111.10
2023-01-11T18:59:59.029Z,105.30
2023-01-11T19:02:31.110Z,110.57
2023-01-11T19:04:57.749Z,107.23
2023-01-11T19:07:24.964Z,109.30
2023-01-11T19:09:51.542Z,97.87
2023-01-11T19:12:18.636Z,109.77
2023-01-11T19:14:45.344Z,102.37
2023-01-11T19:17:12.015Z,99.60
2023-01-11T19:19:38.666Z,100.03
2023-01-11T19:22:05.456Z,101.80
2023-01-11T19:24:32.340Z,104.97
2023-01-11T19:26:58.948Z,99.50
2023-01-11T19:29:25.608Z,92.43
2023-01-11T19:31:52.704Z,91.67
2023-01-11T19:34:19.419Z,90.47
2023-01-11T19:36:46.157Z,91.67
2023-01-11T19:39:12.775Z,81.03
2023-01-11T19:41:54.510Z,71.53
2023-01-11T19:44:21.932Z,70.70
2023-01-11T19:46:50.492Z,72.07
2023-01-11T19:49:19.579Z,69.13
2023-01-11T19:51:46.374Z,66.53
2023-01-11T19:54:14.746Z,61.27
2023-01-11T19:56:41.763Z,58.13
2023-01-11T19:59:08.234Z,57.13
2023-01-11T20:01:34.865Z,53.60
2023-01-11T20:04:01.522Z,49.33
2023-01-11T20:06:28.131Z,46.13
2023-01-11T20:08:54.911Z,45.83
2023-01-11T20:11:21.489Z,39.97
2023-01-11T20:13:50.877Z,36.30
2023-01-11T20:16:21.299Z,31.07
2023-01-11T20:18:54.865Z,31.13
2023-01-11T20:21:21.752Z,31.43
2023-01-11T20:23:48.412Z,28.83
2023-01-11T20:26:15.479Z,29.53
2023-01-11T20:28:42.800Z,31.23
2023-01-11T20:31:09.572Z,28.93
2023-01-11T20:33:36.119Z,26.43
2023-01-11T20:36:09.699Z,21.50
2023-01-11T20:38:36.288Z,23.00
2023-01-11T20:41:10.046Z,23.03
2023-01-11T20:43:40.489Z,24.60
2023-01-11T20:46:07.383Z,27.63
2023-01-11T20:48:35.872Z,29.87
2023-01-11T20:51:03.499Z,28.53
2023-01-11T20:53:30.108Z,20.03
2023-01-11T20:55:57.333Z,15.30
2023-01-11T20:58:23.995Z,18.57
2023-01-11T21:00:50.588Z,17.17
2023-01-11T21:03:20.083Z,14.03
2023-01-11T21:05:46.647Z,17.93
2023-01-11T21:08:13.219Z,16.00
2023-01-11T21:10:43.332Z,14.40
2023-01-11T21:13:10.054Z,13.40
2023-01-11T21:15:36.749Z,14.73
2023-01-11T21:18:03.415Z,11.03
2023-01-11T21:20:29.973Z,11.37
2023-01-11T21:22:56.565Z,14.93
2023-01-11T21:25:23.096Z,11.30
2023-01-11T21:27:49.730Z,13.00
2023-01-11T21:30:16.603Z,14.80
2023-01-11T21:32:43.551Z,18.27
2023-01-11T21:35:10.120Z,15.20
2023-01-11T21:37:36.657Z,14.93
2023-01-11T21:40:03.328Z,15.50
2023-01-11T21:42:29.913Z,14.87
2023-01-11T21:44:56.500Z,14.30
2023-01-11T21:47:23.007Z,13.73
2023-01-11T21:49:49.576Z,12.73
2023-01-11T21:52:16.060Z,9.10
2023-01-11T21:54:44.112Z,11.43
2023-01-11T21:57:10.639Z,9.50
2023-01-11T21:59:37.369Z,10.93
2023-01-11T22:02:03.863Z,9.73
2023-01-11T22:04:30.446Z,10.17
2023-01-11T22:06:58.052Z,11.87
2023-01-11T22:09:26.295Z,6.40
2023-01-11T22:11:52.908Z,7.33
2023-01-11T22:14:19.475Z,9.50
2023-01-11T22:16:46.120Z,10.30
2023-01-11T22:19:12.911Z,10.17
2023-01-11T22:21:39.526Z,6.97
2023-01-11T22:24:07.871Z,8.33
2023-01-11T22:26:38.850Z,8.53
2023-01-11T22:29:17.869Z,8.20
2023-01-11T22:31:44.447Z,8.23
2023-01-11T22:34:11.321Z,9.43
2023-01-11T22:36:38.068Z,6.53
2023-01-11T22:39:04.814Z,7.83
2023-01-11T22:41:31.393Z,5.20
2023-01-11T22:43:57.915Z,7.80
2023-01-11T22:46:24.962Z,5.07
2023-01-11T22:48:51.765Z,5.67
2023-01-11T22:51:19.430Z,6.30
2023-01-11T22:53:46.769Z,6.07
2023-01-11T22:56:13.581Z,6.03
2023-01-11T22:58:40.152Z,5.97
2023-01-11T23:01:10.531Z,6.40
2023-01-11T23:03:37.655Z,6.60
2023-01-11T23:06:04.368Z,6.80
2023-01-11T23:08:30.958Z,7.50
2023-01-11T23:11:00.663Z,7.67
2023-01-11T23:13:45.939Z,7.03
2023-01-11T23:16:14.939Z,4.63
2023-01-11T23:18:41.570Z,6.07
2023-01-11T23:21:08.420Z,9.37
2023-01-11T23:23:35.050Z,6.87
2023-01-11T23:26:01.617Z,6.67
2023-01-11T23:28:29.990Z,7.67
2023-01-11T23:30:56.548Z,7.77
2023-01-11T23:33:23.029Z,6.77
2023-01-11T23:35:56.527Z,7.33
2023-01-11T23:38:23.073Z,4.90
2023-01-11T23:41:08.189Z,9.53
2023-01-11T23:43:40.649Z,9.00
2023-01-11T23:46:25.862Z,9.30
2023-01-11T23:48:52.356Z,8.90
2023-01-11T23:51:18.972Z,7.67
2023-01-11T23:53:45.523Z,6.97
2023-01-11T23:56:13.155Z,4.83
2023-01-11T23:58:39.632Z,6.30
